PDT,Max TemperatureF,Mean TemperatureF,Min TemperatureF,Max Dew PointF,MeanDew PointF,Min DewpointF,Max Humidity, Mean Humidity, Min Humidity, Max Sea Level PressureIn, Mean Sea Level PressureIn, Min Sea Level PressureIn, Max VisibilityMiles, Mean VisibilityMiles, Min VisibilityMiles, Max Wind SpeedMPH, Mean Wind SpeedMPH, Max Gust SpeedMPH,PrecipitationIn, CloudCover, Events, WindDirDegrees
2013-3-1,81,58,35,29,22,17,64,37,10,30.30,30.22,30.15,10,10,10,25,11,32,0.00,0,,75
2013-3-2,83,60,37,40,30,19,70,40,10,30.22,30.16,30.09,10,10,5,16,4,18,0.00,0,,228
2013-3-3,73,54,35,49,38,26,82,50,17,30.10,30.04,29.99,10,9,5,17,3,22,0.00,3,,262
2013-3-4,65,55,44,49,47,43,93,75,56,30.10,30.05,30.01,10,8,4,12,3,16,0.00,4,,288
2013-3-5,64,56,47,52,48,46,100,80,60,30.11,30.08,30.02,10,4,0,14,4,18,0.00,6,Fog,285
2013-3-6,62,53,44,46,43,38,100,76,51,30.13,30.08,30.01,10,10,7,13,6,21,T,5,Rain,281
2013-3-7,56,49,41,50,45,40,93,77,61,30.02,29.98,29.87,10,8,2,16,3,20,0.06,7,Rain,285
2013-3-8,51,47,42,46,42,37,93,82,71,30.05,29.89,29.79,10,8,2,18,7,24,1.08,8,Rain,222
2013-3-9,54,49,44,45,43,35,93,79,64,30.21,30.11,30.03,10,8,1,16,6,21,0.19,6,Rain,256
2013-3-10,69,50,30,44,36,30,100,66,32,30.24,30.20,30.15,10,6,0,14,5,,0.00,0,Fog,357
2013-3-11,74,53,31,45,37,24,92,56,19,30.18,30.12,30.05,10,10,10,12,3,15,0.00,0,,302
2013-3-12,78,57,35,47,40,34,92,59,26,30.08,30.04,30.00,10,10,7,14,4,20,0.00,0,,308
2013-3-13,86,63,40,49,43,36,89,55,20,30.10,30.06,30.03,10,10,10,14,3,17,0.00,0,,282
2013-3-14,88,65,41,53,44,39,96,59,21,30.07,30.04,30.00,10,10,10,16,4,20,0.00,0,,294
2013-3-15,81,61,41,56,45,41,96,62,28,30.03,29.98,29.94,10,10,10,13,4,15,0.00,0,,348
2013-3-16,72,55,37,52,44,36,100,66,31,29.96,29.94,29.88,10,5,0,16,4,20,0.00,1,Fog,279
2013-3-17,68,55,42,52,48,41,100,77,53,30.00,29.96,29.92,10,4,0,13,4,17,0.00,3,Fog,297
2013-3-18,67,58,48,51,48,46,100,80,60,30.09,30.02,29.97,10,6,0,12,4,14,0.00,5,Fog,316
2013-3-19,71,58,44,52,48,44,93,72,51,30.09,30.06,30.02,10,8,5,12,3,15,0.00,3,,267
2013-3-20,73,58,42,51,47,44,93,69,44,30.07,30.02,29.97,10,9,5,15,5,18,0.00,0,,294
2013-3-21,67,55,43,51,47,42,100,73,45,29.96,29.87,29.82,10,7,0,13,4,15,0.00,2,Fog,232
2013-3-22,70,61,51,52,46,39,89,69,49,29.93,29.86,29.79,10,7,1,15,4,17,0.00,3,,239
2013-3-23,71,53,35,52,42,34,100,71,41,30.02,29.95,29.90,10,3,0,14,4,18,0.00,4,Fog,288
2013-3-24,75,55,35,49,41,35,100,67,33,30.01,29.97,29.89,10,4,0,13,4,18,0.00,3,Fog,281
2013-3-25,80,59,37,52,44,35,92,57,21,29.97,29.93,29.88,10,8,3,14,3,17,0.00,0,,281
2013-3-26,72,55,38,51,43,37,100,69,38,29.97,29.93,29.90,10,5,0,14,5,17,0.00,1,Fog,290
2013-3-27,70,56,41,50,45,39,100,71,42,30.04,29.97,29.91,10,4,0,13,3,17,0.00,3,Fog,275
2013-3-28,75,56,37,50,43,37,100,66,31,30.09,30.03,30.00,10,5,0,14,3,20,0.00,1,Fog,287
2013-3-29,73,57,41,55,49,41,100,77,53,30.13,30.07,30.03,10,6,0,14,4,16,0.00,2,Fog,280
2013-3-30,74,60,45,54,50,44,100,72,44,30.14,30.08,30.03,10,6,0,17,5,22,0.00,2,Fog,305
2013-3-31,70,56,42,52,47,39,100,74,47,30.14,30.10,30.05,10,6,0,21,5,26,0.00,4,Fog,272